Hoegh Berlin — C6XQ4 — position and weather

sailwx.info

Track history (hours):
 
Tides and Currents Weather Stations Pressure Air Temp Water Temp Dewpoint Dewpoint Depression Visibility Wind Speed Wind Dir Waves Ship Positions

Hoegh Berlin

Last reported at 2016-May-26 14:25 UTC. Time now 2016-May-27 10:26 UTC.
Position N 37°53' W 074°13'.

Length 228 m; draft 8.1 m.

Type: Cargo ship. MMSI: 311019100.

Date/timePositionNaut miles runAvg speedWind from/ knotsBaromVisibWave heightAir tempDewpointWater temp
2016-May-26 14:25N 37°53' W 074°13'1413.2
2016-May-26 13:24N 38°04' W 074°23'1213.8
2016-May-26 12:33N 38°14' W 074°31'1313.4
2016-May-26 11:33N 38°24' W 074°41'1413.5
2016-May-26 10:33N 38°36' W 074°51'1515.0
2016-May-26 09:33N 38°48' W 075°03'1514.7
2016-May-26 08:34N 39°01' W 075°09'1616.0
2016-May-26 07:33N 39°15' W 075°19'1414.0
2016-May-26 06:34N 39°26' W 075°32'1211.5
2016-May-26 05:33N 39°37' W 075°35'6 6.4
2016-May-26 04:33N 39°42' W 075°31'0 0.0
2016-May-26 03:32N 39°42' W 075°31'0 0.0
2016-May-26 02:32N 39°42' W 075°31'0 0.0
2016-May-26 01:32N 39°42' W 075°31'0 0.0
2016-May-26 00:32N 39°42' W 075°31'0 0.0
2016-May-25 23:32N 39°42' W 075°31'0 0.0
2016-May-25 22:32N 39°42' W 075°31'0 0.0
2016-May-25 21:32N 39°42' W 075°31'0 0.0
2016-May-25 20:32N 39°42' W 075°31'0 0.0
2016-May-25 19:32N 39°42' W 075°31'0 0.0
2016-May-25 18:32N 39°42' W 075°31'0 0.0
2016-May-25 17:32N 39°42' W 075°31'0 0.0
2016-May-25 16:32N 39°42' W 075°31'0 0.0
2016-May-25 15:32N 39°42' W 075°31'0 0.0
2016-May-25 14:32N 39°42' W 075°31'0 0.0
2016-May-25 13:32N 39°42' W 075°31'0 0.0
2016-May-25 12:32N 39°42' W 075°31'0 0.0
2016-May-25 11:32N 39°42' W 075°31'0 0.0
2016-May-25 10:32N 39°42' W 075°31'0 0.0
2016-May-25 09:33N 39°42' W 075°31'0 0.0
2016-May-25 08:32N 39°42' W 075°31'0 0.0
2016-May-25 07:32N 39°42' W 075°31'0 0.0
2016-May-25 06:32N 39°42' W 075°31'0 0.0
2016-May-25 05:32N 39°42' W 075°31'0 0.0
2016-May-25 04:32N 39°42' W 075°31'0 0.0
2016-May-25 03:32N 39°42' W 075°31'0 0.0
2016-May-25 02:32N 39°42' W 075°31'0 0.0
2016-May-25 01:32N 39°42' W 075°31'0 0.0
2016-May-25 00:34N 39°42' W 075°31'7 7.0
2016-May-24 23:34N 39°48' W 075°25'1110.6
2016-May-24 22:33N 39°52' W 075°13'4 4.0
2016-May-24 21:33N 39°54' W 075°08'0 0.0
2016-May-24 20:33N 39°54' W 075°08'0 0.0
2016-May-24 19:33N 39°54' W 075°08'0 0.0
2016-May-24 18:33N 39°54' W 075°08'0 0.0
2016-May-24 17:33N 39°54' W 075°08'0 0.0
2016-May-24 16:33N 39°54' W 075°08'2 1.6
2016-May-24 15:34N 39°53' W 075°09'8 8.5
2016-May-24 14:33N 39°51' W 075°20'1110.8
2016-May-24 13:33N 39°43' W 075°30'1110.8
2016-May-24 12:34N 39°33' W 075°32'1110.7
2016-May-24 11:34N 39°23' W 075°28'1313.4
2016-May-24 10:34N 39°12' W 075°17'1414.0
2016-May-24 09:34N 39°00' W 075°08'1413.9
2016-May-24 08:33N 38°47' W 075°02'7 7.2
2016-May-24 07:33N 38°43' W 074°55'1313.0
2016-May-24 06:34N 38°33' W 074°44'437 9.7
2016-May-22 09:22N 32°26' W 079°36'1214.6
2016-May-22 08:33N 32°14' W 079°39'315 8.0
2016-May-20 17:24N 27°00' W 079°26'2613.5
2016-May-20 15:27N 26°34' W 079°25'1713.2
2016-May-20 14:11N 26°17' W 079°25'1016.2
2016-May-20 13:33N 26°07' W 079°26'2019.1
2016-May-20 12:30N 25°47' W 079°30'15714.2
2016-May-20 01:27N 23°45' W 081°19'  
Track history (hours):
 
Tides and Currents Weather Stations Pressure Air Temp Water Temp Dewpoint Dewpoint Depression Visibility Wind Speed Wind Dir Waves Ship Positions

Hoegh Berlin

Last reported at 2016-May-26 14:25 UTC. Time now 2016-May-27 10:26 UTC.
Position N 37°53' W 074°13'.

Length 228 m; draft 8.1 m.

Type: Cargo ship. MMSI: 311019100.

Date/timePositionNaut miles runAvg speedWind from/ knotsBaromVisibWave heightAir tempDewpointWater temp
2016-May-26 14:25N 37°53' W 074°13'1413.2
2016-May-26 13:24N 38°04' W 074°23'1213.8
2016-May-26 12:33N 38°14' W 074°31'1313.4
2016-May-26 11:33N 38°24' W 074°41'1413.5
2016-May-26 10:33N 38°36' W 074°51'1515.0
2016-May-26 09:33N 38°48' W 075°03'1514.7
2016-May-26 08:34N 39°01' W 075°09'1616.0
2016-May-26 07:33N 39°15' W 075°19'1414.0
2016-May-26 06:34N 39°26' W 075°32'1211.5
2016-May-26 05:33N 39°37' W 075°35'6 6.4
2016-May-26 04:33N 39°42' W 075°31'0 0.0
2016-May-26 03:32N 39°42' W 075°31'0 0.0
2016-May-26 02:32N 39°42' W 075°31'0 0.0
2016-May-26 01:32N 39°42' W 075°31'0 0.0
2016-May-26 00:32N 39°42' W 075°31'0 0.0
2016-May-25 23:32N 39°42' W 075°31'0 0.0
2016-May-25 22:32N 39°42' W 075°31'0 0.0
2016-May-25 21:32N 39°42' W 075°31'0 0.0
2016-May-25 20:32N 39°42' W 075°31'0 0.0
2016-May-25 19:32N 39°42' W 075°31'0 0.0
2016-May-25 18:32N 39°42' W 075°31'0 0.0
2016-May-25 17:32N 39°42' W 075°31'0 0.0
2016-May-25 16:32N 39°42' W 075°31'0 0.0
2016-May-25 15:32N 39°42' W 075°31'0 0.0
2016-May-25 14:32N 39°42' W 075°31'0 0.0
2016-May-25 13:32N 39°42' W 075°31'0 0.0
2016-May-25 12:32N 39°42' W 075°31'0 0.0
2016-May-25 11:32N 39°42' W 075°31'0 0.0
2016-May-25 10:32N 39°42' W 075°31'0 0.0
2016-May-25 09:33N 39°42' W 075°31'0 0.0
2016-May-25 08:32N 39°42' W 075°31'0 0.0
2016-May-25 07:32N 39°42' W 075°31'0 0.0
2016-May-25 06:32N 39°42' W 075°31'0 0.0
2016-May-25 05:32N 39°42' W 075°31'0 0.0
2016-May-25 04:32N 39°42' W 075°31'0 0.0
2016-May-25 03:32N 39°42' W 075°31'0 0.0
2016-May-25 02:32N 39°42' W 075°31'0 0.0
2016-May-25 01:32N 39°42' W 075°31'0 0.0
2016-May-25 00:34N 39°42' W 075°31'7 7.0
2016-May-24 23:34N 39°48' W 075°25'1110.6
2016-May-24 22:33N 39°52' W 075°13'4 4.0
2016-May-24 21:33N 39°54' W 075°08'0 0.0
2016-May-24 20:33N 39°54' W 075°08'0 0.0
2016-May-24 19:33N 39°54' W 075°08'0 0.0
2016-May-24 18:33N 39°54' W 075°08'0 0.0
2016-May-24 17:33N 39°54' W 075°08'0 0.0
2016-May-24 16:33N 39°54' W 075°08'2 1.6
2016-May-24 15:34N 39°53' W 075°09'8 8.5
2016-May-24 14:33N 39°51' W 075°20'1110.8
2016-May-24 13:33N 39°43' W 075°30'1110.8
2016-May-24 12:34N 39°33' W 075°32'1110.7
2016-May-24 11:34N 39°23' W 075°28'1313.4
2016-May-24 10:34N 39°12' W 075°17'1414.0
2016-May-24 09:34N 39°00' W 075°08'1413.9
2016-May-24 08:33N 38°47' W 075°02'7 7.2
2016-May-24 07:33N 38°43' W 074°55'1313.0
2016-May-24 06:34N 38°33' W 074°44'437 9.7
2016-May-22 09:22N 32°26' W 079°36'1214.6
2016-May-22 08:33N 32°14' W 079°39'315 8.0
2016-May-20 17:24N 27°00' W 079°26'2613.5
2016-May-20 15:27N 26°34' W 079°25'1713.2
2016-May-20 14:11N 26°17' W 079°25'1016.2
2016-May-20 13:33N 26°07' W 079°26'2019.1
2016-May-20 12:30N 25°47' W 079°30'15714.2
2016-May-20 01:27N 23°45' W 081°19'  

Dump ship's entire track history